Hauptseite
METAR-TAF:

METAR-TAF

Flughäfen :

Flughafen Grenchen

Grenchen, Schweiz

Breite: 47-10-53N, Länge: 007-24-59E, Höhe: 430 m

Beobachtung

Neuester Wetterbericht von vor 29 Minuten, um 07:20 UTC
Wind 2 kt aus Süd/Südost
Temperatur 12°C
Luftfeuchtigkeit 71%
Luftdruck 1025 hPa
Sichtweite 10 km oder mehr
keine Wolken unter 1500 m und keine Kumulonimbus oder Gewitterwolken

METAR: LSZG 220720Z 15002KT CAVOK 12/07 Q1025 NOSIG

Zeit: 09:49 (07:49 UTC)

Prognose

Neuester Wetterbericht von vor 2 Stunden und 24 Minuten, um 05:25 UTC
Gültige Prognose vom 22 um 06 UTC bis 22 um 15 UTC
Wind 3 kt aus Nord/Nordost
Sichtweite 10 km oder mehr
Leicht bewölkt in der Höhe von 5000 ft
Zeitweise
vom 22 um 06 UTC bis 22 um 15 UTC
Sichtweite 10 km oder mehr
keine Wolken unter 1500 m und keine Kumulonimbus oder Gewitterwolken

TAF: LSZG 220525Z 2206/2215 03003KT 9999 FEW050 TEMPO 2206/2215 CAVOK

Wetterbeobachtungen und Prognosen von mehr als 4000 Flughäfen (METAR und TAF Bericht).

Die verfügbaren Stationen werden durch gelbe und rote Markierungen auf der Karte dargestellt.

Führen Sie die Maus auf sie, um den Namen der Station zu sehen.

Darauf klicken, um die Beobachtung von Wetterbeobachtungen und Prognosen zu sehen.

Um die Karte zu ändern : klicken Sie auf den grünen Tasten mit einem schwarzen Kreuz Zum Vergrößern, auf den grünen Button mit einem Gedankenstrich zu verkleinern, oder auf die grünen Pfeile für benachbarte Karten.


METAR-TAF: